createdAt,value
2022-09-10T00:00:12.468Z,91.86
2022-09-10T00:00:44.037Z,92.55
2022-09-10T00:01:17.437Z,92.61
2022-09-10T00:01:49.210Z,92.53
2022-09-10T00:02:20.759Z,92.57
2022-09-10T00:02:52.321Z,92.37
2022-09-10T00:03:24.360Z,92.37
2022-09-10T00:03:56.590Z,92.53
2022-09-10T00:04:28.441Z,92.74
2022-09-10T00:05:02.548Z,92.67
2022-09-10T00:05:41.949Z,92.77
2022-09-10T00:06:13.512Z,92.38
2022-09-10T00:06:45.342Z,92.77
2022-09-10T00:07:18.638Z,92.61
2022-09-10T00:07:50.137Z,92.84
2022-09-10T00:08:21.953Z,93.01
2022-09-10T00:08:57.254Z,92.57
2022-09-10T00:09:29.054Z,92.48
2022-09-10T00:10:00.564Z,92.57
2022-09-10T00:10:32.075Z,92.63
2022-09-10T00:11:07.091Z,92.84
2022-09-10T00:11:41.017Z,92.93
2022-09-10T00:12:12.497Z,93.11
2022-09-10T00:12:44.105Z,93.23
2022-09-10T00:13:19.260Z,93.24
2022-09-10T00:13:51.159Z,93.48
2022-09-10T00:14:24.002Z,93.48
2022-09-10T00:14:56.422Z,93.34
2022-09-10T00:15:27.944Z,93.36
2022-09-10T00:16:02.359Z,93.44
2022-09-10T00:16:33.982Z,93.36
2022-09-10T00:17:05.523Z,93.19
2022-09-10T00:17:39.111Z,93.24
2022-09-10T00:18:11.619Z,93.27
2022-09-10T00:18:43.199Z,93.31
2022-09-10T00:19:15.467Z,93.20
2022-09-10T00:19:47.097Z,93.09
2022-09-10T00:20:18.641Z,93.04
2022-09-10T00:20:56.145Z,93.10
2022-09-10T00:21:29.882Z,93.24
2022-09-10T00:22:01.474Z,93.03
2022-09-10T00:22:34.361Z,92.81
2022-09-10T00:23:05.886Z,93.01
2022-09-10T00:23:37.901Z,92.85
2022-09-10T00:24:09.415Z,92.83
2022-09-10T00:24:41.071Z,93.14
2022-09-10T00:25:12.575Z,93.45
2022-09-10T00:25:44.063Z,93.37
2022-09-10T00:26:27.761Z,93.12
2022-09-10T00:26:59.761Z,93.20
2022-09-10T00:27:31.262Z,93.28
2022-09-10T00:28:02.981Z,93.39
2022-09-10T00:28:34.621Z,93.24
2022-09-10T00:29:08.579Z,93.67
2022-09-10T00:29:40.057Z,93.75
2022-09-10T00:30:12.233Z,93.58
2022-09-10T00:30:46.583Z,93.54
2022-09-10T00:31:19.759Z,93.80
2022-09-10T00:31:51.770Z,93.68
2022-09-10T00:32:23.268Z,93.85
2022-09-10T00:32:55.442Z,93.81
2022-09-10T00:33:26.938Z,93.65
2022-09-10T00:34:00.542Z,93.66
2022-09-10T00:34:32.849Z,93.70
2022-09-10T00:35:04.850Z,93.43
2022-09-10T00:35:36.826Z,93.62
2022-09-10T00:36:23.281Z,93.49
2022-09-10T00:36:54.840Z,93.73
2022-09-10T00:37:26.334Z,93.54
2022-09-10T00:37:57.874Z,93.40
2022-09-10T00:38:30.082Z,93.26
2022-09-10T00:39:08.346Z,93.10
2022-09-10T00:39:40.485Z,93.06
2022-09-10T00:40:12.741Z,93.09
2022-09-10T00:40:44.945Z,93.23
2022-09-10T00:41:17.763Z,93.17
2022-09-10T00:41:49.389Z,93.17
2022-09-10T00:42:21.093Z,93.18
2022-09-10T00:42:52.691Z,93.28
2022-09-10T00:43:24.712Z,93.33
2022-09-10T00:43:58.785Z,93.42
2022-09-10T00:44:43.670Z,93.40
2022-09-10T00:45:27.183Z,93.56
2022-09-10T00:45:58.808Z,93.67
2022-09-10T00:46:35.997Z,93.49
2022-09-10T00:47:14.736Z,93.45
2022-09-10T00:47:50.409Z,93.37
2022-09-10T00:48:27.600Z,93.24
2022-09-10T00:49:02.855Z,93.30
2022-09-10T00:49:40.590Z,93.64
2022-09-10T00:50:22.049Z,93.47
2022-09-10T00:50:54.982Z,93.50
2022-09-10T00:51:31.105Z,93.56
2022-09-10T00:52:03.215Z,93.39
2022-09-10T00:52:39.590Z,93.27
2022-09-10T00:53:15.705Z,93.31
2022-09-10T00:53:47.310Z,93.31
2022-09-10T00:54:21.997Z,93.16
2022-09-10T00:54:54.232Z,93.38
2022-09-10T00:55:25.820Z,93.28
2022-09-10T00:56:00.176Z,93.32
2022-09-10T00:56:33.941Z,93.18
2022-09-10T00:57:13.023Z,93.14
2022-09-10T00:57:47.601Z,93.15
2022-09-10T00:58:20.793Z,93.19
2022-09-10T00:58:52.771Z,93.14
2022-09-10T00:59:26.573Z,93.11
2022-09-10T01:00:03.393Z,93.18
2022-09-10T01:00:35.075Z,93.05
2022-09-10T01:01:07.679Z,93.08
2022-09-10T01:01:40.456Z,92.95
2022-09-10T01:02:12.247Z,92.89
2022-09-10T01:02:44.222Z,92.90
2022-09-10T01:03:17.104Z,93.07
2022-09-10T01:03:49.736Z,93.08
2022-09-10T01:04:21.768Z,93.16
2022-09-10T01:04:55.400Z,93.04
2022-09-10T01:05:27.051Z,93.16
2022-09-10T01:05:58.997Z,93.18
2022-09-10T01:06:31.000Z,93.17
2022-09-10T01:07:02.875Z,93.28
2022-09-10T01:07:35.456Z,93.14
2022-09-10T01:08:06.953Z,93.24
2022-09-10T01:08:38.645Z,93.28
2022-09-10T01:09:10.827Z,93.39
2022-09-10T01:09:42.876Z,93.21
2022-09-10T01:10:28.053Z,93.13
2022-09-10T01:11:14.459Z,93.03
2022-09-10T01:11:58.048Z,93.23
2022-09-10T01:12:47.869Z,93.12
2022-09-10T01:13:37.395Z,93.02
2022-09-10T01:14:24.133Z,93.11
2022-09-10T01:15:07.801Z,93.15
2022-09-10T01:15:49.954Z,93.02
2022-09-10T01:16:24.497Z,93.04
2022-09-10T01:17:19.702Z,93.17
2022-09-10T01:18:14.266Z,93.16
2022-09-10T01:19:07.504Z,93.20
2022-09-10T01:20:03.906Z,93.26
2022-09-10T01:21:00.347Z,93.15
2022-09-10T01:21:52.690Z,93.41
2022-09-10T01:22:32.522Z,93.20
2022-09-10T01:23:21.926Z,93.00
2022-09-10T01:24:33.877Z,92.59
2022-09-10T01:25:48.491Z,92.88
2022-09-10T01:26:41.074Z,92.59
2022-09-10T01:27:31.078Z,92.72
2022-09-10T01:28:08.871Z,92.92
2022-09-10T01:28:51.284Z,93.02
2022-09-10T01:29:47.214Z,91.85
2022-09-10T01:30:22.925Z,91.90
2022-09-10T01:31:02.322Z,91.88
2022-09-10T01:31:54.580Z,91.92
2022-09-10T01:32:35.689Z,92.01
2022-09-10T01:33:20.405Z,92.62
2022-09-10T01:34:08.082Z,92.53
2022-09-10T01:34:55.082Z,92.71
2022-09-10T01:35:38.530Z,92.91
2022-09-10T01:36:16.404Z,93.01
2022-09-10T01:36:51.937Z,93.04
2022-09-10T01:37:32.893Z,92.93
2022-09-10T01:38:10.384Z,92.58
2022-09-10T01:38:42.706Z,92.75
2022-09-10T01:39:16.966Z,93.01
2022-09-10T01:39:51.720Z,93.07
2022-09-10T01:40:29.739Z,93.04
2022-09-10T01:41:02.149Z,93.15
2022-09-10T01:41:34.075Z,92.97
2022-09-10T01:42:07.003Z,92.84
2022-09-10T01:42:41.631Z,93.18
2022-09-10T01:43:13.469Z,93.07
2022-09-10T01:43:45.001Z,93.04
2022-09-10T01:44:41.365Z,92.54
2022-09-10T01:45:15.453Z,92.56
2022-09-10T01:45:55.970Z,92.36
2022-09-10T01:46:49.468Z,92.86
2022-09-10T01:47:58.184Z,93.60
2022-09-10T01:48:51.572Z,92.56
2022-09-10T01:49:23.277Z,92.59
2022-09-10T01:50:24.739Z,92.93
2022-09-10T01:51:28.292Z,93.01
2022-09-10T01:52:26.331Z,93.70
2022-09-10T01:53:35.018Z,93.52
2022-09-10T01:54:28.614Z,93.15
2022-09-10T01:55:26.797Z,92.57
2022-09-10T01:56:19.614Z,92.39
2022-09-10T01:57:14.381Z,91.75
2022-09-10T01:58:13.547Z,91.65
2022-09-10T01:58:45.684Z,91.69
2022-09-10T01:59:29.099Z,91.75
2022-09-10T02:00:12.867Z,91.77
2022-09-10T02:01:26.023Z,91.79
2022-09-10T02:02:19.652Z,91.77
2022-09-10T02:02:59.212Z,91.67
2022-09-10T02:03:33.097Z,91.65
2022-09-10T02:04:08.594Z,91.46
2022-09-10T02:04:42.505Z,91.37
2022-09-10T02:05:16.864Z,91.56
2022-09-10T02:05:53.854Z,91.69
2022-09-10T02:06:30.920Z,92.27
2022-09-10T02:07:04.955Z,91.89
2022-09-10T02:07:37.782Z,92.19
2022-09-10T02:08:14.654Z,92.79
2022-09-10T02:08:51.881Z,92.00
2022-09-10T02:09:23.830Z,92.56
2022-09-10T02:09:55.597Z,93.05
2022-09-10T02:10:27.461Z,92.65
2022-09-10T02:11:06.415Z,92.43
2022-09-10T02:11:47.340Z,93.00
2022-09-10T02:12:21.028Z,92.86
2022-09-10T02:12:52.710Z,92.63
2022-09-10T02:13:24.481Z,92.38
2022-09-10T02:13:56.860Z,92.48
2022-09-10T02:14:28.597Z,91.94
2022-09-10T02:15:00.784Z,91.79
2022-09-10T02:15:33.359Z,91.94
2022-09-10T02:16:09.945Z,91.71
2022-09-10T02:16:47.456Z,91.66
2022-09-10T02:17:20.313Z,92.18
2022-09-10T02:17:53.644Z,92.33
2022-09-10T02:18:26.826Z,92.70
2022-09-10T02:19:00.091Z,92.59
2022-09-10T02:19:31.598Z,92.21
2022-09-10T02:20:06.956Z,91.83
2022-09-10T02:20:39.298Z,92.47
2022-09-10T02:21:12.102Z,91.71
2022-09-10T02:21:44.099Z,92.33
2022-09-10T02:22:15.648Z,92.04
2022-09-10T02:22:53.710Z,91.82
2022-09-10T02:23:31.774Z,92.09
2022-09-10T02:24:10.028Z,92.20
2022-09-10T02:24:44.272Z,92.14
2022-09-10T02:25:16.464Z,92.32
2022-09-10T02:25:49.203Z,91.84
2022-09-10T02:26:20.762Z,91.40
2022-09-10T02:26:52.368Z,91.42
2022-09-10T02:27:23.945Z,91.70
2022-09-10T02:27:56.178Z,91.43
2022-09-10T02:28:28.035Z,91.42
2022-09-10T02:29:01.825Z,91.46
2022-09-10T02:29:34.228Z,91.41
2022-09-10T02:30:07.792Z,91.30
2022-09-10T02:30:39.319Z,91.06
2022-09-10T02:31:11.466Z,90.82
2022-09-10T02:31:43.986Z,90.81
2022-09-10T02:32:15.929Z,91.08
2022-09-10T02:32:47.862Z,91.28
2022-09-10T02:33:19.414Z,91.26
2022-09-10T02:33:51.227Z,91.06
2022-09-10T02:34:23.116Z,91.09
2022-09-10T02:34:54.630Z,91.27
2022-09-10T02:35:26.194Z,91.08
2022-09-10T02:35:58.672Z,90.77
2022-09-10T02:36:31.714Z,91.15
2022-09-10T02:37:03.949Z,91.22
2022-09-10T02:37:35.954Z,91.04
2022-09-10T02:38:08.179Z,91.02
2022-09-10T02:38:40.436Z,91.04
2022-09-10T02:39:11.944Z,90.57
2022-09-10T02:39:45.479Z,90.92
2022-09-10T02:40:21.153Z,90.72
2022-09-10T02:40:52.653Z,90.42
2022-09-10T02:41:25.527Z,90.76
2022-09-10T02:41:58.697Z,90.39
2022-09-10T02:42:30.207Z,90.46
2022-09-10T02:43:01.730Z,90.34
2022-09-10T02:43:38.086Z,90.59
2022-09-10T02:44:09.630Z,90.74
2022-09-10T02:44:41.306Z,90.25
2022-09-10T02:45:13.852Z,90.51
2022-09-10T02:45:45.610Z,90.27
2022-09-10T02:46:18.029Z,90.31
2022-09-10T02:46:49.544Z,90.59
2022-09-10T02:47:21.134Z,90.62
2022-09-10T02:47:52.818Z,90.34
2022-09-10T02:48:27.809Z,90.00
2022-09-10T02:48:59.339Z,90.28
2022-09-10T02:49:31.850Z,90.08
2022-09-10T02:50:03.556Z,90.51
2022-09-10T02:50:35.464Z,90.76
2022-09-10T02:51:07.084Z,90.19
2022-09-10T02:51:38.852Z,90.30
2022-09-10T02:52:10.400Z,90.38
2022-09-10T02:52:41.918Z,90.24
2022-09-10T02:53:13.980Z,90.01
2022-09-10T02:53:45.492Z,90.32
2022-09-10T02:54:19.856Z,90.17
2022-09-10T02:54:51.405Z,90.10
2022-09-10T02:55:22.993Z,90.03
2022-09-10T02:55:54.510Z,90.08
2022-09-10T02:56:26.032Z,90.56
2022-09-10T02:56:57.565Z,90.14
2022-09-10T02:57:29.795Z,90.23
2022-09-10T02:58:01.638Z,90.37
2022-09-10T02:58:34.109Z,90.37
2022-09-10T02:59:06.380Z,90.49
2022-09-10T02:59:37.926Z,90.55
2022-09-10T03:00:10.350Z,90.49
2022-09-10T03:00:42.730Z,91.29
2022-09-10T03:01:18.215Z,90.78
2022-09-10T03:01:49.857Z,91.13
2022-09-10T03:02:21.404Z,90.66
2022-09-10T03:02:53.020Z,90.37
2022-09-10T03:03:24.540Z,90.20
2022-09-10T03:03:58.211Z,90.10
2022-09-10T03:04:29.730Z,90.41
2022-09-10T03:05:01.317Z,90.13
2022-09-10T03:05:32.982Z,90.44
2022-09-10T03:06:05.122Z,90.39
2022-09-10T03:06:37.008Z,90.45
2022-09-10T03:07:08.589Z,90.41
2022-09-10T03:07:40.484Z,90.21
2022-09-10T03:08:12.129Z,90.52
2022-09-10T03:08:43.884Z,90.28
2022-09-10T03:09:16.371Z,90.56
2022-09-10T03:09:47.882Z,90.68
2022-09-10T03:10:19.395Z,90.32
2022-09-10T03:10:50.942Z,90.90
2022-09-10T03:11:25.321Z,91.16
2022-09-10T03:11:56.850Z,90.72
2022-09-10T03:12:28.378Z,90.52
2022-09-10T03:13:00.374Z,90.06
2022-09-10T03:13:31.868Z,89.87
2022-09-10T03:14:03.392Z,90.26
2022-09-10T03:14:34.910Z,90.67
2022-09-10T03:15:07.172Z,90.76
2022-09-10T03:15:38.664Z,90.52
2022-09-10T03:16:10.413Z,90.34
2022-09-10T03:16:42.015Z,90.21
2022-09-10T03:17:13.546Z,89.93
2022-09-10T03:17:45.061Z,90.42
2022-09-10T03:18:18.121Z,90.28
2022-09-10T03:18:49.741Z,90.07
2022-09-10T03:19:21.562Z,90.12
2022-09-10T03:19:53.148Z,90.46
2022-09-10T03:20:25.350Z,90.75
2022-09-10T03:21:08.766Z,91.29
2022-09-10T03:21:43.476Z,90.65
2022-09-10T03:22:14.981Z,91.05
2022-09-10T03:22:47.375Z,90.93
2022-09-10T03:23:19.038Z,91.41
2022-09-10T03:23:52.643Z,91.28
2022-09-10T03:24:25.296Z,90.82
2022-09-10T03:24:56.818Z,90.37
2022-09-10T03:25:28.324Z,90.16
2022-09-10T03:26:00.132Z,90.60
2022-09-10T03:26:31.641Z,91.24
2022-09-10T03:27:03.390Z,90.56
2022-09-10T03:27:35.450Z,90.64
2022-09-10T03:28:07.117Z,91.04
2022-09-10T03:28:38.756Z,91.44
2022-09-10T03:29:10.798Z,91.69
2022-09-10T03:29:43.245Z,90.82
2022-09-10T03:30:14.925Z,91.05
2022-09-10T03:30:46.418Z,90.63
2022-09-10T03:31:18.249Z,90.52
2022-09-10T03:31:51.729Z,90.18
2022-09-10T03:32:23.407Z,90.17
2022-09-10T03:32:54.966Z,90.02
2022-09-10T03:33:26.688Z,90.01
2022-09-10T03:33:59.719Z,90.11
2022-09-10T03:34:31.244Z,90.06
2022-09-10T03:35:02.862Z,90.54
2022-09-10T03:35:34.388Z,90.00
2022-09-10T03:36:06.110Z,89.88
2022-09-10T03:36:37.614Z,90.02
2022-09-10T03:37:09.117Z,90.01
2022-09-10T03:37:40.674Z,89.77
2022-09-10T03:38:12.180Z,89.63
2022-09-10T03:38:44.269Z,89.72
2022-09-10T03:39:16.281Z,89.84
2022-09-10T03:39:48.079Z,89.88
2022-09-10T03:40:19.692Z,89.70
2022-09-10T03:40:53.102Z,89.83
2022-09-10T03:41:26.933Z,89.98
2022-09-10T03:41:58.706Z,89.69
2022-09-10T03:42:30.272Z,89.62
2022-09-10T03:43:02.903Z,89.93
2022-09-10T03:43:34.548Z,89.87
2022-09-10T03:44:06.441Z,89.88
2022-09-10T03:44:38.140Z,90.26
2022-09-10T03:45:10.222Z,89.94
2022-09-10T03:45:41.769Z,89.91
2022-09-10T03:46:13.314Z,89.71
2022-09-10T03:46:45.694Z,89.78
2022-09-10T03:47:17.940Z,90.49
2022-09-10T03:47:49.459Z,90.69
2022-09-10T03:48:21.725Z,90.85
2022-09-10T03:48:55.391Z,90.81
2022-09-10T03:49:28.005Z,90.26
2022-09-10T03:49:59.856Z,90.99
2022-09-10T03:50:31.670Z,90.88
2022-09-10T03:51:03.202Z,90.81
2022-09-10T03:51:35.209Z,90.88
2022-09-10T03:52:06.994Z,91.25
2022-09-10T03:52:38.516Z,91.05
2022-09-10T03:53:14.842Z,91.45
2022-09-10T03:53:46.358Z,90.84
2022-09-10T03:54:17.875Z,90.67
2022-09-10T03:54:51.147Z,91.01
2022-09-10T03:55:23.402Z,90.64
2022-09-10T03:55:55.701Z,90.02
2022-09-10T03:56:27.846Z,90.26
2022-09-10T03:57:03.098Z,89.66
2022-09-10T03:57:34.655Z,90.43
2022-09-10T03:58:06.307Z,90.66
2022-09-10T03:58:38.024Z,90.48
2022-09-10T03:59:09.869Z,90.55
2022-09-10T03:59:41.406Z,90.64
2022-09-10T04:00:13.547Z,90.35
2022-09-10T04:00:46.192Z,90.47
2022-09-10T04:01:18.592Z,90.77
2022-09-10T04:01:50.730Z,90.47
2022-09-10T04:02:22.283Z,90.62
2022-09-10T04:02:53.860Z,90.48
2022-09-10T04:03:25.993Z,89.98
2022-09-10T04:03:58.223Z,90.25
2022-09-10T04:04:31.457Z,90.70
2022-09-10T04:05:03.029Z,90.66
2022-09-10T04:05:35.110Z,90.42
2022-09-10T04:06:12.922Z,90.42
2022-09-10T04:06:45.230Z,90.60
2022-09-10T04:07:16.769Z,90.22
2022-09-10T04:07:48.302Z,90.30
2022-09-10T04:08:20.586Z,90.75
2022-09-10T04:08:52.854Z,90.64
2022-09-10T04:09:24.391Z,90.93
2022-09-10T04:09:56.068Z,90.83
2022-09-10T04:10:28.408Z,90.65
2022-09-10T04:11:03.596Z,90.07
2022-09-10T04:11:35.939Z,90.25
2022-09-10T04:12:08.049Z,89.91
2022-09-10T04:12:39.615Z,90.04
2022-09-10T04:13:11.599Z,90.08
2022-09-10T04:13:43.149Z,90.20
2022-09-10T04:14:15.706Z,90.16
2022-09-10T04:14:47.283Z,89.95
2022-09-10T04:15:19.161Z,90.37
2022-09-10T04:15:50.761Z,90.17
2022-09-10T04:16:23.444Z,89.77
2022-09-10T04:16:55.023Z,89.95
2022-09-10T04:17:28.159Z,90.33
2022-09-10T04:17:59.822Z,90.19
2022-09-10T04:18:34.505Z,89.74
2022-09-10T04:19:06.125Z,90.46
2022-09-10T04:19:37.995Z,90.36
2022-09-10T04:20:09.805Z,90.55
2022-09-10T04:20:42.251Z,90.48
2022-09-10T04:21:13.783Z,90.95
2022-09-10T04:21:45.395Z,90.80
2022-09-10T04:22:16.960Z,90.79
2022-09-10T04:22:49.599Z,90.45
2022-09-10T04:23:21.194Z,90.97
2022-09-10T04:23:56.391Z,90.27
2022-09-10T04:24:27.921Z,90.40
2022-09-10T04:24:59.661Z,90.41
2022-09-10T04:25:31.673Z,90.28
2022-09-10T04:26:12.004Z,90.28
2022-09-10T04:26:43.503Z,90.44
2022-09-10T04:27:16.474Z,90.69
2022-09-10T04:27:49.736Z,90.49
2022-09-10T04:28:21.246Z,89.95
2022-09-10T04:28:53.573Z,89.90
2022-09-10T04:29:25.347Z,90.12
2022-09-10T04:29:57.041Z,90.43
2022-09-10T04:30:29.034Z,90.43
2022-09-10T04:31:00.623Z,90.24
2022-09-10T04:31:32.166Z,90.11
2022-09-10T04:32:03.965Z,89.88
2022-09-10T04:32:35.668Z,90.10
2022-09-10T04:33:07.765Z,91.02
2022-09-10T04:33:39.504Z,90.93
2022-09-10T04:34:11.500Z,90.40
2022-09-10T04:34:43.115Z,89.94
2022-09-10T04:35:15.481Z,89.95
2022-09-10T04:35:47.066Z,89.97
2022-09-10T04:36:19.245Z,90.31
2022-09-10T04:36:50.761Z,90.18
2022-09-10T04:37:22.435Z,90.49
2022-09-10T04:37:54.025Z,90.11
2022-09-10T04:38:25.772Z,90.17
2022-09-10T04:38:58.196Z,90.00
2022-09-10T04:39:29.978Z,90.02
2022-09-10T04:40:01.864Z,90.58
2022-09-10T04:40:34.297Z,90.36
2022-09-10T04:41:06.114Z,90.55
2022-09-10T04:41:37.652Z,89.83
2022-09-10T04:42:09.839Z,90.01
2022-09-10T04:42:41.357Z,89.80
2022-09-10T04:43:12.917Z,89.80
2022-09-10T04:43:44.413Z,89.80
2022-09-10T04:44:20.018Z,89.91
2022-09-10T04:44:51.654Z,90.19
2022-09-10T04:45:23.209Z,89.91
2022-09-10T04:45:55.651Z,90.00
2022-09-10T04:46:27.230Z,90.10
2022-09-10T04:46:58.737Z,89.88
2022-09-10T04:47:30.242Z,89.79
2022-09-10T04:48:06.661Z,89.54
2022-09-10T04:48:39.086Z,89.84
2022-09-10T04:49:11.089Z,89.53
2022-09-10T04:49:43.499Z,89.81
2022-09-10T04:50:15.638Z,89.96
2022-09-10T04:51:12.265Z,89.69
2022-09-10T04:51:38.804Z,89.67
2022-09-10T04:52:11.874Z,89.70
2022-09-10T04:52:43.377Z,89.88
2022-09-10T04:53:15.225Z,89.88
2022-09-10T04:53:46.768Z,89.67
2022-09-10T04:54:18.436Z,89.79
2022-09-10T04:54:50.015Z,89.86
2022-09-10T04:55:21.542Z,89.84
2022-09-10T04:55:54.573Z,89.64
2022-09-10T04:56:26.610Z,89.72
2022-09-10T04:56:58.116Z,89.90
2022-09-10T04:57:29.667Z,89.92
2022-09-10T04:58:01.165Z,89.93
2022-09-10T04:58:37.918Z,90.01
2022-09-10T04:59:10.896Z,90.09
2022-09-10T04:59:42.421Z,90.13
2022-09-10T05:00:14.656Z,89.85
2022-09-10T05:00:46.569Z,90.15
2022-09-10T05:01:18.234Z,90.45
2022-09-10T05:01:50.598Z,90.55
2022-09-10T05:02:22.223Z,90.27
2022-09-10T05:02:53.786Z,90.40
2022-09-10T05:03:25.292Z,90.64
2022-09-10T05:03:57.090Z,89.93
2022-09-10T05:04:28.641Z,90.06
2022-09-10T05:05:00.314Z,89.82
2022-09-10T05:05:33.137Z,89.54
2022-09-10T05:06:05.177Z,89.66
2022-09-10T05:06:36.741Z,90.12
2022-09-10T05:07:08.287Z,89.93
2022-09-10T05:07:39.785Z,90.06
2022-09-10T05:08:12.785Z,89.68
2022-09-10T05:08:44.301Z,89.81
2022-09-10T05:09:18.624Z,89.77
2022-09-10T05:09:50.321Z,89.69
2022-09-10T05:10:24.407Z,89.35
2022-09-10T05:10:56.327Z,89.53
2022-09-10T05:11:27.904Z,89.73
2022-09-10T05:12:01.051Z,89.72
2022-09-10T05:12:32.541Z,89.85
2022-09-10T05:13:04.396Z,89.89
2022-09-10T05:13:35.907Z,89.90
2022-09-10T05:14:07.609Z,89.03
2022-09-10T05:14:39.183Z,89.36
2022-09-10T05:15:10.879Z,88.73
2022-09-10T05:15:42.861Z,88.75
2022-09-10T05:16:14.419Z,88.94
2022-09-10T05:16:46.249Z,88.84
2022-09-10T05:17:17.858Z,88.66
2022-09-10T05:17:49.807Z,88.65
2022-09-10T05:18:21.309Z,88.72
2022-09-10T05:18:53.249Z,88.64
2022-09-10T05:19:24.769Z,88.56
2022-09-10T05:19:56.341Z,88.46
2022-09-10T05:20:28.245Z,88.98
2022-09-10T05:20:59.808Z,89.25
2022-09-10T05:21:32.117Z,88.72
2022-09-10T05:22:03.713Z,88.67
2022-09-10T05:22:40.315Z,89.12
2022-09-10T05:23:12.358Z,88.57
2022-09-10T05:23:44.114Z,88.31
2022-09-10T05:24:16.502Z,88.21
2022-09-10T05:24:48.009Z,88.49
2022-09-10T05:25:19.517Z,88.10
2022-09-10T05:25:51.429Z,88.00
2022-09-10T05:26:24.213Z,87.94
2022-09-10T05:26:56.933Z,87.83
2022-09-10T05:27:28.435Z,88.06
2022-09-10T05:28:01.184Z,88.10
2022-09-10T05:28:32.708Z,89.15
2022-09-10T05:29:04.308Z,88.39
2022-09-10T05:29:35.827Z,88.37
2022-09-10T05:30:08.357Z,88.18
2022-09-10T05:30:39.861Z,88.37
2022-09-10T05:31:12.942Z,88.16
2022-09-10T05:31:44.583Z,88.31
2022-09-10T05:32:16.177Z,88.38
2022-09-10T05:32:47.825Z,88.51
2022-09-10T05:33:19.361Z,88.60
2022-09-10T05:33:50.869Z,88.35
2022-09-10T05:34:22.494Z,88.53
2022-09-10T05:34:54.269Z,88.57
2022-09-10T05:35:26.041Z,88.99
2022-09-10T05:35:57.541Z,88.50
2022-09-10T05:36:29.334Z,88.19
2022-09-10T05:37:00.975Z,88.07
2022-09-10T05:37:32.501Z,88.19
2022-09-10T05:38:04.115Z,87.85
2022-09-10T05:38:39.708Z,88.39
2022-09-10T05:39:11.582Z,88.57
2022-09-10T05:39:43.368Z,88.58
2022-09-10T05:40:15.300Z,87.98
2022-09-10T05:40:47.028Z,87.99
2022-09-10T05:41:18.541Z,87.92
2022-09-10T05:41:50.070Z,87.90
2022-09-10T05:42:22.139Z,87.85
2022-09-10T05:42:54.244Z,87.97
2022-09-10T05:43:25.751Z,88.24
2022-09-10T05:43:57.791Z,88.53
2022-09-10T05:44:29.432Z,88.23
2022-09-10T05:45:01.131Z,89.40
2022-09-10T05:45:33.523Z,88.92
2022-09-10T05:46:05.317Z,88.21
2022-09-10T05:46:36.856Z,88.54
2022-09-10T05:47:08.688Z,88.34
2022-09-10T05:47:40.193Z,88.69
2022-09-10T05:48:11.753Z,88.23
2022-09-10T05:48:43.363Z,88.45
2022-09-10T05:49:15.261Z,88.14
2022-09-10T05:49:47.911Z,88.36
2022-09-10T05:50:19.995Z,88.38
2022-09-10T05:50:51.594Z,87.97
2022-09-10T05:51:27.759Z,88.56
2022-09-10T05:51:59.311Z,88.47
2022-09-10T05:52:31.155Z,88.38
2022-09-10T05:53:02.697Z,88.41
2022-09-10T05:53:34.413Z,87.95
2022-09-10T05:54:06.030Z,88.13
2022-09-10T05:54:37.543Z,88.21
2022-09-10T05:55:09.661Z,88.40
2022-09-10T05:55:41.167Z,89.19
2022-09-10T05:56:12.858Z,88.27
2022-09-10T05:56:44.501Z,88.36
2022-09-10T05:57:16.093Z,88.49
2022-09-10T05:57:47.654Z,88.11
2022-09-10T05:58:19.177Z,87.98
2022-09-10T05:58:50.717Z,88.60
2022-09-10T05:59:22.207Z,88.31
2022-09-10T05:59:53.901Z,87.91
2022-09-10T06:00:25.570Z,87.85
2022-09-10T06:00:58.189Z,87.98
2022-09-10T06:01:32.059Z,88.66
2022-09-10T06:02:03.951Z,88.35
2022-09-10T06:02:36.522Z,88.18
2022-09-10T06:03:08.261Z,88.63
2022-09-10T06:03:40.464Z,88.60
2022-09-10T06:04:12.065Z,88.00
2022-09-10T06:04:43.820Z,88.10
2022-09-10T06:05:15.362Z,88.08
2022-09-10T06:05:53.319Z,87.91
2022-09-10T06:06:28.251Z,87.63
2022-09-10T06:07:01.854Z,87.71
2022-09-10T06:07:34.429Z,87.85
2022-09-10T06:08:08.723Z,87.29
2022-09-10T06:08:40.827Z,87.21
2022-09-10T06:09:12.698Z,87.15
2022-09-10T06:09:44.233Z,87.36
2022-09-10T06:10:16.260Z,87.09
2022-09-10T06:11:02.569Z,87.55
2022-09-10T06:11:34.107Z,87.53
2022-09-10T06:12:08.638Z,87.52
2022-09-10T06:12:40.251Z,87.52
2022-09-10T06:13:11.785Z,87.33
2022-09-10T06:13:43.823Z,87.19
2022-09-10T06:14:15.589Z,86.98
2022-09-10T06:14:47.154Z,87.08
2022-09-10T06:15:21.096Z,87.35
2022-09-10T06:15:53.729Z,86.89
2022-09-10T06:16:25.272Z,86.96
2022-09-10T06:16:56.833Z,87.49
2022-09-10T06:17:28.337Z,87.71
2022-09-10T06:18:00.258Z,87.85
2022-09-10T06:18:33.128Z,87.89
2022-09-10T06:19:04.653Z,87.04
2022-09-10T06:19:36.170Z,87.33
2022-09-10T06:20:09.431Z,86.97
2022-09-10T06:20:40.944Z,87.40
2022-09-10T06:21:15.263Z,87.40
2022-09-10T06:21:49.624Z,88.34
2022-09-10T06:22:21.206Z,87.65
2022-09-10T06:22:52.928Z,87.63
2022-09-10T06:23:25.509Z,87.17
2022-09-10T06:23:57.130Z,86.77
2022-09-10T06:24:28.676Z,86.59
2022-09-10T06:25:00.188Z,87.79
2022-09-10T06:25:32.010Z,86.69
2022-09-10T06:26:10.289Z,86.67
2022-09-10T06:26:41.866Z,86.38
2022-09-10T06:27:13.374Z,87.13
2022-09-10T06:27:44.942Z,86.55
2022-09-10T06:28:16.444Z,86.69
2022-09-10T06:28:49.724Z,86.94
2022-09-10T06:29:22.559Z,86.56
2022-09-10T06:29:56.355Z,86.62
2022-09-10T06:30:28.313Z,86.58
2022-09-10T06:31:00.426Z,86.90
2022-09-10T06:31:31.995Z,86.45
2022-09-10T06:32:04.092Z,86.68
2022-09-10T06:32:35.631Z,86.22
2022-09-10T06:33:07.280Z,86.23
2022-09-10T06:33:38.834Z,86.35
2022-09-10T06:34:11.491Z,86.24
2022-09-10T06:34:43.142Z,86.17
2022-09-10T06:35:14.733Z,86.81
2022-09-10T06:35:53.727Z,86.28
2022-09-10T06:36:25.348Z,86.55
2022-09-10T06:36:58.298Z,86.97
2022-09-10T06:37:34.953Z,87.08
2022-09-10T06:38:06.670Z,87.79
2022-09-10T06:38:38.286Z,86.68
2022-09-10T06:39:09.906Z,87.27
2022-09-10T06:39:41.758Z,88.38
2022-09-10T06:40:13.467Z,87.59
2022-09-10T06:40:56.063Z,88.22
2022-09-10T06:41:30.970Z,87.78
2022-09-10T06:42:02.478Z,88.15
2022-09-10T06:42:33.980Z,88.19
2022-09-10T06:43:06.098Z,88.23
2022-09-10T06:43:40.022Z,87.60
2022-09-10T06:44:11.527Z,87.29
2022-09-10T06:44:44.199Z,87.37
2022-09-10T06:45:15.788Z,87.48
2022-09-10T06:45:47.323Z,87.56
2022-09-10T06:46:56.669Z,87.75
2022-09-10T06:47:55.476Z,88.02
2022-09-10T06:49:00.724Z,88.30
2022-09-10T06:49:32.642Z,88.73
2022-09-10T06:50:04.756Z,88.53
2022-09-10T06:50:37.568Z,88.96
2022-09-10T06:51:12.643Z,88.63
2022-09-10T06:51:44.257Z,89.15
2022-09-10T06:52:15.912Z,89.35
2022-09-10T06:52:48.775Z,88.62
2022-09-10T06:53:22.164Z,89.11
2022-09-10T06:53:53.696Z,89.22
2022-09-10T06:54:26.534Z,88.78
2022-09-10T06:54:59.297Z,88.92
2022-09-10T06:55:30.990Z,88.98
2022-09-10T06:56:05.589Z,88.63
2022-09-10T06:56:37.301Z,88.49
2022-09-10T06:57:08.878Z,88.83
2022-09-10T06:57:40.403Z,88.79
2022-09-10T06:58:11.918Z,88.73
2022-09-10T06:58:43.589Z,88.71
2022-09-10T06:59:15.221Z,88.91
2022-09-10T06:59:47.669Z,89.30
2022-09-10T07:00:19.321Z,89.36
2022-09-10T07:00:51.710Z,88.97
2022-09-10T07:01:25.788Z,88.89
2022-09-10T07:01:57.633Z,88.92
2022-09-10T07:02:30.959Z,88.79
2022-09-10T07:03:02.568Z,89.79
2022-09-10T07:03:34.314Z,89.99
2022-09-10T07:04:06.869Z,90.01
2022-09-10T07:04:38.408Z,89.86
2022-09-10T07:05:10.027Z,89.74
2022-09-10T07:05:42.015Z,89.72
2022-09-10T07:06:16.678Z,90.14
2022-09-10T07:06:48.227Z,90.53
2022-09-10T07:07:20.188Z,90.57
2022-09-10T07:07:52.241Z,90.88
2022-09-10T07:08:25.439Z,90.85
2022-09-10T07:08:58.108Z,90.33
2022-09-10T07:09:29.639Z,90.28
2022-09-10T07:10:01.501Z,90.66
2022-09-10T07:10:33.821Z,90.96
2022-09-10T07:11:08.061Z,90.27
2022-09-10T07:11:41.784Z,91.69
2022-09-10T07:12:13.513Z,91.47
2022-09-10T07:12:45.004Z,91.97
2022-09-10T07:13:17.426Z,92.10
2022-09-10T07:13:53.127Z,91.89
2022-09-10T07:14:24.669Z,91.67
2022-09-10T07:14:56.185Z,91.49
2022-09-10T07:15:28.416Z,91.97
2022-09-10T07:16:00.410Z,91.41
2022-09-10T07:16:32.113Z,91.72
2022-09-10T07:17:03.642Z,91.68
2022-09-10T07:17:36.099Z,91.34